SARM/MCS METAR and TAF weather

Enter ICAO airport designator
Station Type Date Time Source
SARM METAR 2019/10/17 11:15 UTC NOAA

SARM 171115Z 02007KT 2000 TSRA OVC003 FEW050CB 19/19 Q1014


Station Type Date Time Source
SARM Decoded METAR 2019/10/17 11:15 UTC NOAA

Monte Caseros Aerodrome, Argentina (SARM) 30-16S 057-39W 54M
Oct 17, 2019 - 07:15 AM EDT / 2019.10.17 1115 UTC
Wind: from the NNE (020 degrees) at 8 MPH (7 KT):0
Visibility: 1 mile(s):0
Sky conditions: overcast
Weather: rain with thunder; Cumulonimbus clouds observed
Temperature: 66 F (19 C)
Dew Point: 66 F (19 C)
Relative Humidity: 100%
Pressure (altimeter): 29.94 in. Hg (1014 hPa)
ob: SARM 171115Z 02007KT 2000 TSRA OVC003 FEW050CB 19/19 Q1014
cycle: 11

Station Type Date Time Source
SARM TAF UTC NOAA

Error!

Example: see airport list